createdAt,value
2022-10-26T00:03:35.122Z,13.80
2022-10-26T00:07:36.717Z,13.80
2022-10-26T00:11:38.367Z,13.90
2022-10-26T00:15:41.846Z,13.90
2022-10-26T00:19:43.461Z,13.90
2022-10-26T00:23:45.544Z,13.80
2022-10-26T00:27:47.455Z,13.70
2022-10-26T00:31:49.430Z,13.90
2022-10-26T00:35:54.422Z,13.90
2022-10-26T00:39:56.048Z,13.90
2022-10-26T00:43:57.927Z,14.00
2022-10-26T00:48:07.445Z,14.10
2022-10-26T00:52:09.579Z,14.10
2022-10-26T00:56:11.346Z,14.10
2022-10-26T01:00:13.386Z,14.10
2022-10-26T01:04:15.898Z,14.10
2022-10-26T01:08:18.494Z,14.00
2022-10-26T01:12:20.123Z,14.00
2022-10-26T01:16:57.037Z,14.00
2022-10-26T01:21:01.845Z,14.00
2022-10-26T01:25:16.243Z,14.10
2022-10-26T01:29:44.358Z,14.10
2022-10-26T01:34:00.309Z,14.10
2022-10-26T01:38:10.624Z,14.20
2022-10-26T01:42:15.836Z,14.30
2022-10-26T01:46:22.575Z,14.40
2022-10-26T01:50:26.013Z,14.60
2022-10-26T01:54:32.030Z,14.70
2022-10-26T01:59:23.301Z,14.90
2022-10-26T02:04:03.032Z,15.10
2022-10-26T02:08:33.424Z,15.10
2022-10-26T02:12:53.112Z,15.10
2022-10-26T02:17:13.305Z,15.10
2022-10-26T02:21:33.096Z,15.10
2022-10-26T02:26:00.879Z,15.10
2022-10-26T02:34:52.260Z,15.00
2022-10-26T02:39:05.078Z,15.00
2022-10-26T02:43:32.954Z,15.10
2022-10-26T02:47:35.262Z,15.10
2022-10-26T02:52:12.954Z,15.10
2022-10-26T02:56:43.178Z,15.00
2022-10-26T03:00:46.707Z,15.00
2022-10-26T03:04:51.328Z,14.90
2022-10-26T03:08:53.646Z,14.80
2022-10-26T03:12:56.508Z,14.70
2022-10-26T03:17:01.140Z,14.60
2022-10-26T03:21:03.484Z,14.50
2022-10-26T03:25:12.377Z,14.50
2022-10-26T03:29:14.541Z,14.40
2022-10-26T03:33:23.324Z,14.30
2022-10-26T03:37:32.514Z,14.30
2022-10-26T03:41:34.450Z,14.20
2022-10-26T03:45:41.877Z,14.10
2022-10-26T03:49:43.763Z,14.00
2022-10-26T03:53:53.102Z,14.00
2022-10-26T03:57:55.177Z,14.00
2022-10-26T04:02:02.367Z,14.10
2022-10-26T04:10:27.040Z,14.00
2022-10-26T04:14:34.546Z,14.10
2022-10-26T04:18:52.263Z,14.00
2022-10-26T04:23:14.864Z,14.00
2022-10-26T04:27:23.642Z,13.90
2022-10-26T04:31:30.851Z,14.00
2022-10-26T04:35:35.237Z,14.00
2022-10-26T04:39:45.233Z,14.10
2022-10-26T04:43:55.303Z,14.10
2022-10-26T04:52:59.130Z,14.20
2022-10-26T04:57:24.183Z,14.40
2022-10-26T05:01:27.099Z,14.40
2022-10-26T05:05:32.994Z,14.40
2022-10-26T05:09:34.891Z,14.30
2022-10-26T05:13:42.817Z,14.40
2022-10-26T05:17:45.281Z,14.30
2022-10-26T05:22:08.974Z,14.40
2022-10-26T05:26:14.197Z,14.30
2022-10-26T05:35:18.641Z,14.40
2022-10-26T05:39:21.386Z,14.40
2022-10-26T05:43:28.628Z,14.30
2022-10-26T05:47:30.318Z,14.40
2022-10-26T05:51:39.671Z,14.40
2022-10-26T05:55:48.832Z,14.40
2022-10-26T05:59:54.780Z,14.40
2022-10-26T06:04:26.153Z,14.40
2022-10-26T06:08:29.175Z,14.30
2022-10-26T06:12:36.682Z,14.20
2022-10-26T06:17:33.548Z,14.10
2022-10-26T06:22:03.886Z,14.10
2022-10-26T06:26:36.906Z,14.10
2022-10-26T06:30:40.820Z,14.00
2022-10-26T06:34:48.384Z,14.00
2022-10-26T06:38:58.050Z,14.10
2022-10-26T06:43:00.533Z,14.10
2022-10-26T06:47:31.400Z,14.10
2022-10-26T06:51:41.143Z,14.20
2022-10-26T06:55:45.416Z,14.20
2022-10-26T07:00:01.056Z,14.20
2022-10-26T07:04:02.849Z,14.20
2022-10-26T07:08:05.438Z,14.20
2022-10-26T07:12:07.517Z,14.30
2022-10-26T07:16:09.292Z,14.40
2022-10-26T07:20:11.774Z,14.40
2022-10-26T07:24:13.473Z,14.50
2022-10-26T07:28:15.172Z,14.60
2022-10-26T07:32:16.888Z,14.60
2022-10-26T07:36:18.567Z,14.70
2022-10-26T07:44:21.970Z,14.90
2022-10-26T07:48:23.750Z,15.00
2022-10-26T07:52:25.437Z,15.00
2022-10-26T07:56:27.224Z,15.00
2022-10-26T08:00:29.743Z,15.00
2022-10-26T08:04:31.466Z,15.20
2022-10-26T08:08:33.703Z,15.30
2022-10-26T08:12:35.494Z,15.50
2022-10-26T08:16:40.022Z,15.50
2022-10-26T08:20:41.781Z,15.60
2022-10-26T08:24:46.628Z,15.50
2022-10-26T08:28:50.066Z,15.70
2022-10-26T08:33:02.288Z,15.70
2022-10-26T08:37:03.991Z,15.70
2022-10-26T08:41:08.919Z,15.70
2022-10-26T08:45:36.606Z,15.70
2022-10-26T08:49:48.402Z,16.00
2022-10-26T08:54:01.109Z,16.20
2022-10-26T08:58:08.098Z,16.30
2022-10-26T09:02:14.366Z,16.40
2022-10-26T09:06:33.708Z,16.60
2022-10-26T09:10:40.653Z,16.60
2022-10-26T09:14:49.101Z,16.70
2022-10-26T09:19:12.346Z,16.70
2022-10-26T09:23:27.931Z,16.90
2022-10-26T09:27:35.944Z,17.00
2022-10-26T09:31:47.086Z,17.10
2022-10-26T09:36:13.217Z,17.20
2022-10-26T09:40:36.502Z,17.40
2022-10-26T09:44:50.101Z,17.50
2022-10-26T09:48:56.819Z,17.50
2022-10-26T09:52:58.598Z,17.80
2022-10-26T09:57:02.163Z,17.70
2022-10-26T10:01:04.067Z,17.70
2022-10-26T10:05:49.855Z,17.70
2022-10-26T10:10:15.943Z,17.70
2022-10-26T10:14:20.713Z,17.80
2022-10-26T10:18:23.881Z,17.80
2022-10-26T10:22:26.403Z,18.20
2022-10-26T10:26:28.160Z,18.40
2022-10-26T10:30:32.765Z,18.50
2022-10-26T10:34:36.140Z,18.60
2022-10-26T10:38:43.961Z,18.70
2022-10-26T10:42:47.493Z,18.80
2022-10-26T10:46:49.617Z,18.90
2022-10-26T10:51:03.507Z,19.00
2022-10-26T10:55:21.358Z,19.10
2022-10-26T10:59:57.150Z,19.20
2022-10-26T11:04:45.613Z,19.20
2022-10-26T11:08:55.681Z,19.30
2022-10-26T11:13:03.038Z,19.40
2022-10-26T11:17:24.375Z,19.50
2022-10-26T11:21:31.385Z,19.50
2022-10-26T11:25:57.409Z,19.60
2022-10-26T11:30:33.579Z,19.70
2022-10-26T11:34:46.496Z,19.80
2022-10-26T11:39:06.839Z,19.80
2022-10-26T11:43:35.797Z,20.00
2022-10-26T11:47:46.860Z,20.00
2022-10-26T11:51:52.912Z,19.90
2022-10-26T11:55:56.370Z,20.10
2022-10-26T12:00:20.108Z,20.10
2022-10-26T12:04:26.796Z,20.00
2022-10-26T12:08:36.044Z,19.80
2022-10-26T12:12:50.277Z,19.80
2022-10-26T12:17:11.655Z,19.70
2022-10-26T12:21:15.037Z,19.80
2022-10-26T12:25:16.681Z,19.90
2022-10-26T12:29:31.079Z,20.00
2022-10-26T12:33:49.938Z,20.10
2022-10-26T12:37:51.857Z,20.30
2022-10-26T12:42:10.817Z,20.40
2022-10-26T12:46:12.387Z,20.40
2022-10-26T12:50:13.972Z,20.40
2022-10-26T12:54:41.757Z,20.40
2022-10-26T12:58:54.369Z,20.50
2022-10-26T13:03:32.695Z,20.50
2022-10-26T13:07:37.909Z,20.50
2022-10-26T13:11:47.033Z,20.50
2022-10-26T13:15:57.285Z,20.60
2022-10-26T13:20:01.532Z,20.60
2022-10-26T13:24:09.763Z,20.60
2022-10-26T13:28:40.833Z,20.60
2022-10-26T13:32:48.448Z,20.60
2022-10-26T13:37:14.123Z,20.60
2022-10-26T13:41:28.234Z,20.70
2022-10-26T13:45:55.075Z,20.60
2022-10-26T13:50:08.654Z,20.50
2022-10-26T13:54:22.091Z,20.60
2022-10-26T13:58:38.476Z,20.50
2022-10-26T14:02:43.167Z,20.50
2022-10-26T14:06:50.976Z,20.40
2022-10-26T14:10:57.145Z,20.40
2022-10-26T14:15:06.938Z,20.40
2022-10-26T14:19:16.256Z,20.30
2022-10-26T14:23:52.083Z,20.30
2022-10-26T14:27:55.142Z,20.20
2022-10-26T14:31:57.290Z,20.10
2022-10-26T14:35:59.024Z,20.10
2022-10-26T14:40:00.873Z,20.10
2022-10-26T14:44:03.677Z,20.00
2022-10-26T14:48:07.097Z,20.10
2022-10-26T14:52:40.722Z,20.00
2022-10-26T14:56:43.452Z,20.10
2022-10-26T15:00:45.782Z,20.00
2022-10-26T15:05:34.785Z,20.00
2022-10-26T15:09:44.859Z,20.00
2022-10-26T15:13:46.596Z,20.00
2022-10-26T15:17:58.103Z,20.00
2022-10-26T15:21:59.817Z,19.90
2022-10-26T15:26:04.071Z,19.80
2022-10-26T15:30:19.973Z,19.70
2022-10-26T15:34:23.654Z,19.60
2022-10-26T15:38:29.762Z,19.60
2022-10-26T15:42:35.169Z,19.40
2022-10-26T15:46:38.962Z,19.30
2022-10-26T15:50:41.411Z,19.20
2022-10-26T15:54:43.116Z,19.10
2022-10-26T15:58:45.351Z,19.10
2022-10-26T16:02:47.390Z,19.00
2022-10-26T16:06:51.291Z,18.90
2022-10-26T16:10:52.942Z,18.90
2022-10-26T16:15:05.076Z,18.80
2022-10-26T16:19:29.685Z,18.70
2022-10-26T16:23:31.163Z,18.60
2022-10-26T16:27:33.046Z,18.50
2022-10-26T16:31:34.833Z,18.40
2022-10-26T16:35:36.706Z,18.30
2022-10-26T16:39:38.378Z,18.20
2022-10-26T16:43:44.555Z,18.10
2022-10-26T16:47:46.247Z,18.00
2022-10-26T16:51:48.009Z,18.00
2022-10-26T16:55:49.796Z,18.00
2022-10-26T16:59:51.744Z,17.90
2022-10-26T17:03:53.646Z,17.90
2022-10-26T17:07:56.790Z,17.80
2022-10-26T17:12:01.944Z,17.80
2022-10-26T17:16:05.958Z,17.70
2022-10-26T17:20:08.266Z,17.60
2022-10-26T17:24:10.555Z,17.60
2022-10-26T17:28:12.989Z,17.60
2022-10-26T17:32:16.375Z,17.50
2022-10-26T17:36:20.581Z,17.50
2022-10-26T17:40:22.293Z,17.40
2022-10-26T17:44:24.026Z,17.40
2022-10-26T17:48:26.316Z,17.40
2022-10-26T17:52:27.998Z,17.30
2022-10-26T17:56:32.349Z,17.40
2022-10-26T18:00:34.765Z,17.40
2022-10-26T18:04:37.160Z,17.40
2022-10-26T18:08:40.640Z,17.30
2022-10-26T18:12:42.344Z,17.20
2022-10-26T18:16:47.096Z,17.10
2022-10-26T18:20:49.267Z,17.00
2022-10-26T18:24:50.946Z,16.80
2022-10-26T18:28:54.001Z,16.70
2022-10-26T18:32:55.883Z,16.50
2022-10-26T18:36:57.878Z,16.50
2022-10-26T18:41:00.432Z,16.50
2022-10-26T18:45:03.646Z,16.40
2022-10-26T18:49:06.485Z,16.30
2022-10-26T18:53:12.552Z,16.30
2022-10-26T18:57:14.379Z,16.30
2022-10-26T19:01:22.318Z,16.20
2022-10-26T19:05:27.854Z,16.30
2022-10-26T19:09:29.544Z,16.30
2022-10-26T19:13:31.490Z,16.30
2022-10-26T19:17:35.295Z,16.30
2022-10-26T19:21:37.138Z,16.30
2022-10-26T19:25:38.784Z,16.20
2022-10-26T19:29:41.007Z,16.10
2022-10-26T19:33:42.832Z,16.10
2022-10-26T19:37:44.593Z,16.00
2022-10-26T19:41:46.875Z,16.00
2022-10-26T19:45:48.543Z,15.90
2022-10-26T19:49:50.392Z,15.90
2022-10-26T19:53:52.436Z,15.90
2022-10-26T19:57:54.313Z,15.90
2022-10-26T20:01:57.851Z,15.90
2022-10-26T20:06:02.200Z,16.00
2022-10-26T20:10:04.256Z,16.10
2022-10-26T20:14:07.394Z,16.00
2022-10-26T20:18:10.802Z,16.10
2022-10-26T20:22:12.575Z,16.10
2022-10-26T20:26:18.910Z,16.00
2022-10-26T20:30:25.432Z,16.00
2022-10-26T20:38:30.517Z,16.10
2022-10-26T20:42:32.431Z,16.20
2022-10-26T20:46:34.249Z,16.20
2022-10-26T20:50:36.197Z,16.20
2022-10-26T20:54:55.318Z,16.10
2022-10-26T20:59:00.001Z,16.10
2022-10-26T21:03:01.610Z,16.10
2022-10-26T21:07:03.281Z,16.10
2022-10-26T21:11:05.183Z,16.10
2022-10-26T21:15:07.513Z,16.10
2022-10-26T21:19:09.173Z,16.00
2022-10-26T21:23:10.789Z,16.10
2022-10-26T21:27:12.405Z,16.10
2022-10-26T21:31:17.129Z,16.10
2022-10-26T21:35:19.774Z,16.10
2022-10-26T21:39:21.397Z,16.10
2022-10-26T21:43:23.072Z,16.10
2022-10-26T21:47:24.652Z,16.10
2022-10-26T21:51:26.330Z,16.10
2022-10-26T21:55:27.945Z,16.10
2022-10-26T21:59:29.625Z,16.00
2022-10-26T22:03:31.340Z,16.00
2022-10-26T22:07:33.030Z,15.90
2022-10-26T22:11:34.813Z,15.90
2022-10-26T22:15:36.650Z,15.90
2022-10-26T22:19:38.419Z,15.90
2022-10-26T22:23:41.745Z,15.90
2022-10-26T22:27:43.401Z,15.90
2022-10-26T22:31:45.085Z,15.90
2022-10-26T22:35:46.749Z,15.80
2022-10-26T22:43:54.991Z,15.80
2022-10-26T22:47:56.644Z,15.80
2022-10-26T22:51:58.289Z,15.80
2022-10-26T22:56:00.514Z,15.70
2022-10-26T23:00:02.163Z,15.60
2022-10-26T23:04:04.118Z,15.60
2022-10-26T23:08:06.045Z,15.50
2022-10-26T23:12:07.733Z,15.20
2022-10-26T23:16:12.403Z,15.10
2022-10-26T23:20:14.112Z,15.10
2022-10-26T23:24:15.795Z,15.20
2022-10-26T23:28:17.561Z,15.20
2022-10-26T23:32:19.241Z,15.00
2022-10-26T23:36:21.209Z,15.00
2022-10-26T23:40:22.804Z,14.90
2022-10-26T23:44:24.468Z,14.90
2022-10-26T23:48:26.125Z,14.90
2022-10-26T23:52:27.730Z,14.90
2022-10-26T23:56:29.398Z,14.80
